sensor_id;sensor_type;location;lat;lon;timestamp;temperature;humidity
23237;DHT22;11787;52.018;8.570;2022-09-11T00:01:15;16.40;99.90
23237;DHT22;11787;52.018;8.570;2022-09-11T00:03:42;16.40;99.90
23237;DHT22;11787;52.018;8.570;2022-09-11T00:06:11;16.40;99.90
23237;DHT22;11787;52.018;8.570;2022-09-11T00:08:39;16.40;99.90
23237;DHT22;11787;52.018;8.570;2022-09-11T00:11:23;16.30;99.90
23237;DHT22;11787;52.018;8.570;2022-09-11T00:13:50;16.30;99.90
23237;DHT22;11787;52.018;8.570;2022-09-11T00:16:31;16.30;99.90
23237;DHT22;11787;52.018;8.570;2022-09-11T00:19:02;16.20;99.90
23237;DHT22;11787;52.018;8.570;2022-09-11T00:21:28;16.20;99.90
23237;DHT22;11787;52.018;8.570;2022-09-11T00:23:54;16.20;99.90
23237;DHT22;11787;52.018;8.570;2022-09-11T00:26:20;16.10;99.90
23237;DHT22;11787;52.018;8.570;2022-09-11T00:28:47;16.10;99.90
23237;DHT22;11787;52.018;8.570;2022-09-11T00:31:16;16.00;99.90
23237;DHT22;11787;52.018;8.570;2022-09-11T00:33:42;16.00;99.90
23237;DHT22;11787;52.018;8.570;2022-09-11T00:36:23;16.00;99.90
23237;DHT22;11787;52.018;8.570;2022-09-11T00:38:50;15.90;99.90
23237;DHT22;11787;52.018;8.570;2022-09-11T00:41:19;15.90;99.90
23237;DHT22;11787;52.018;8.570;2022-09-11T00:44:02;15.90;99.90
23237;DHT22;11787;52.018;8.570;2022-09-11T00:48:56;15.80;99.90
23237;DHT22;11787;52.018;8.570;2022-09-11T00:51:27;15.70;99.90
23237;DHT22;11787;52.018;8.570;2022-09-11T00:53:55;15.70;99.90
23237;DHT22;11787;52.018;8.570;2022-09-11T00:56:26;15.70;99.90
23237;DHT22;11787;52.018;8.570;2022-09-11T00:58:53;15.70;99.90
23237;DHT22;11787;52.018;8.570;2022-09-11T01:01:20;15.70;99.90
23237;DHT22;11787;52.018;8.570;2022-09-11T01:03:46;15.70;99.90
23237;DHT22;11787;52.018;8.570;2022-09-11T01:06:12;15.70;99.90
23237;DHT22;11787;52.018;8.570;2022-09-11T01:08:38;15.60;99.90
23237;DHT22;11787;52.018;8.570;2022-09-11T01:11:30;15.70;99.90
23237;DHT22;11787;52.018;8.570;2022-09-11T01:17:30;15.70;99.90
23237;DHT22;11787;52.018;8.570;2022-09-11T01:23:22;15.60;99.90
23237;DHT22;11787;52.018;8.570;2022-09-11T01:26:11;15.70;99.90
23237;DHT22;11787;52.018;8.570;2022-09-11T01:31:43;15.70;99.90
23237;DHT22;11787;52.018;8.570;2022-09-11T01:34:21;15.70;99.90
23237;DHT22;11787;52.018;8.570;2022-09-11T01:36:53;15.70;99.90
23237;DHT22;11787;52.018;8.570;2022-09-11T01:39:24;15.80;99.90
23237;DHT22;11787;52.018;8.570;2022-09-11T01:42:00;15.80;99.90
23237;DHT22;11787;52.018;8.570;2022-09-11T01:44:48;15.80;99.90
23237;DHT22;11787;52.018;8.570;2022-09-11T01:47:16;15.80;99.90
23237;DHT22;11787;52.018;8.570;2022-09-11T01:50:03;15.70;99.90
23237;DHT22;11787;52.018;8.570;2022-09-11T01:52:54;15.70;99.90
23237;DHT22;11787;52.018;8.570;2022-09-11T01:55:22;15.60;99.90
23237;DHT22;11787;52.018;8.570;2022-09-11T01:57:57;15.60;99.90
23237;DHT22;11787;52.018;8.570;2022-09-11T02:00:24;15.50;99.90
23237;DHT22;11787;52.018;8.570;2022-09-11T02:03:16;15.50;99.90
23237;DHT22;11787;52.018;8.570;2022-09-11T02:11:09;15.60;99.90
23237;DHT22;11787;52.018;8.570;2022-09-11T02:16:39;15.50;99.90
23237;DHT22;11787;52.018;8.570;2022-09-11T02:19:18;15.50;99.90
23237;DHT22;11787;52.018;8.570;2022-09-11T02:21:45;15.50;99.90
23237;DHT22;11787;52.018;8.570;2022-09-11T02:24:13;15.50;99.90
23237;DHT22;11787;52.018;8.570;2022-09-11T02:26:43;15.50;99.90
23237;DHT22;11787;52.018;8.570;2022-09-11T02:29:11;15.60;99.90
23237;DHT22;11787;52.018;8.570;2022-09-11T02:31:36;15.60;99.90
23237;DHT22;11787;52.018;8.570;2022-09-11T02:34:03;15.60;99.90
23237;DHT22;11787;52.018;8.570;2022-09-11T02:55:33;15.60;99.90
23237;DHT22;11787;52.018;8.570;2022-09-11T02:58:24;15.60;99.90
23237;DHT22;11787;52.018;8.570;2022-09-11T03:00:52;15.60;99.90
23237;DHT22;11787;52.018;8.570;2022-09-11T03:03:20;15.60;99.90
23237;DHT22;11787;52.018;8.570;2022-09-11T03:05:46;15.70;99.90
23237;DHT22;11787;52.018;8.570;2022-09-11T03:08:13;15.60;99.90
23237;DHT22;11787;52.018;8.570;2022-09-11T03:10:41;15.70;99.90
23237;DHT22;11787;52.018;8.570;2022-09-11T03:13:09;15.70;99.90
23237;DHT22;11787;52.018;8.570;2022-09-11T03:15:35;15.70;99.90
23237;DHT22;11787;52.018;8.570;2022-09-11T03:18:00;15.70;99.90
23237;DHT22;11787;52.018;8.570;2022-09-11T03:20:26;15.70;99.90
23237;DHT22;11787;52.018;8.570;2022-09-11T03:22:51;15.70;99.90
23237;DHT22;11787;52.018;8.570;2022-09-11T03:25:17;15.60;99.90
23237;DHT22;11787;52.018;8.570;2022-09-11T03:27:42;15.70;99.90
23237;DHT22;11787;52.018;8.570;2022-09-11T03:30:08;15.70;99.90
23237;DHT22;11787;52.018;8.570;2022-09-11T03:32:34;15.70;99.90
23237;DHT22;11787;52.018;8.570;2022-09-11T03:35:00;15.70;99.90
23237;DHT22;11787;52.018;8.570;2022-09-11T03:37:26;15.70;99.90
23237;DHT22;11787;52.018;8.570;2022-09-11T03:39:51;15.80;99.90
23237;DHT22;11787;52.018;8.570;2022-09-11T03:42:19;15.80;99.90
23237;DHT22;11787;52.018;8.570;2022-09-11T03:44:45;15.80;99.90
23237;DHT22;11787;52.018;8.570;2022-09-11T03:47:10;15.80;99.90
23237;DHT22;11787;52.018;8.570;2022-09-11T03:49:36;15.80;99.90
23237;DHT22;11787;52.018;8.570;2022-09-11T03:52:02;15.80;99.90
23237;DHT22;11787;52.018;8.570;2022-09-11T03:54:28;15.80;99.90
23237;DHT22;11787;52.018;8.570;2022-09-11T03:56:54;15.70;99.90
23237;DHT22;11787;52.018;8.570;2022-09-11T04:02:42;15.80;99.90
23237;DHT22;11787;52.018;8.570;2022-09-11T04:05:08;15.80;99.90
23237;DHT22;11787;52.018;8.570;2022-09-11T04:07:33;15.70;99.90
23237;DHT22;11787;52.018;8.570;2022-09-11T04:09:59;15.80;99.90
23237;DHT22;11787;52.018;8.570;2022-09-11T04:12:25;15.70;99.90
23237;DHT22;11787;52.018;8.570;2022-09-11T04:14:51;15.70;99.90
23237;DHT22;11787;52.018;8.570;2022-09-11T04:17:16;15.70;99.90
23237;DHT22;11787;52.018;8.570;2022-09-11T04:19:42;15.70;99.90
23237;DHT22;11787;52.018;8.570;2022-09-11T04:22:08;15.70;99.90
23237;DHT22;11787;52.018;8.570;2022-09-11T04:24:34;15.70;99.90
23237;DHT22;11787;52.018;8.570;2022-09-11T04:26:59;15.70;99.90
23237;DHT22;11787;52.018;8.570;2022-09-11T04:29:28;15.70;99.90
23237;DHT22;11787;52.018;8.570;2022-09-11T04:31:54;15.70;99.90
23237;DHT22;11787;52.018;8.570;2022-09-11T04:34:20;15.60;99.90
23237;DHT22;11787;52.018;8.570;2022-09-11T04:36:46;15.60;99.90
23237;DHT22;11787;52.018;8.570;2022-09-11T04:39:11;15.60;99.90
23237;DHT22;11787;52.018;8.570;2022-09-11T04:41:37;15.60;99.90
23237;DHT22;11787;52.018;8.570;2022-09-11T04:44:02;15.60;99.90
23237;DHT22;11787;52.018;8.570;2022-09-11T04:46:28;15.60;99.90
23237;DHT22;11787;52.018;8.570;2022-09-11T04:48:55;15.60;99.90
23237;DHT22;11787;52.018;8.570;2022-09-11T04:51:34;15.60;99.90
23237;DHT22;11787;52.018;8.570;2022-09-11T04:54:01;15.60;99.90
23237;DHT22;11787;52.018;8.570;2022-09-11T04:56:28;15.70;99.90
23237;DHT22;11787;52.018;8.570;2022-09-11T04:58:56;15.60;99.90
23237;DHT22;11787;52.018;8.570;2022-09-11T05:01:23;15.50;99.90
23237;DHT22;11787;52.018;8.570;2022-09-11T05:03:49;15.50;99.90
23237;DHT22;11787;52.018;8.570;2022-09-11T05:06:15;15.50;99.90
23237;DHT22;11787;52.018;8.570;2022-09-11T05:08:44;15.60;99.90
23237;DHT22;11787;52.018;8.570;2022-09-11T05:11:12;15.60;99.90
23237;DHT22;11787;52.018;8.570;2022-09-11T05:13:38;15.50;99.90
23237;DHT22;11787;52.018;8.570;2022-09-11T05:16:03;15.60;99.90
23237;DHT22;11787;52.018;8.570;2022-09-11T05:18:29;15.60;99.90
23237;DHT22;11787;52.018;8.570;2022-09-11T05:21:01;15.60;99.90
23237;DHT22;11787;52.018;8.570;2022-09-11T05:23:28;15.60;99.90
23237;DHT22;11787;52.018;8.570;2022-09-11T05:26:14;15.70;99.90
23237;DHT22;11787;52.018;8.570;2022-09-11T05:28:41;15.60;99.90
23237;DHT22;11787;52.018;8.570;2022-09-11T05:31:14;15.60;99.90
23237;DHT22;11787;52.018;8.570;2022-09-11T05:33:40;15.60;99.90
23237;DHT22;11787;52.018;8.570;2022-09-11T05:36:07;15.60;99.90
23237;DHT22;11787;52.018;8.570;2022-09-11T05:38:34;15.60;99.90
23237;DHT22;11787;52.018;8.570;2022-09-11T05:41:01;15.70;99.90
23237;DHT22;11787;52.018;8.570;2022-09-11T05:43:27;15.70;99.90
23237;DHT22;11787;52.018;8.570;2022-09-11T05:45:57;15.60;99.90
23237;DHT22;11787;52.018;8.570;2022-09-11T05:48:23;15.60;99.90
23237;DHT22;11787;52.018;8.570;2022-09-11T05:50:56;15.70;99.90
23237;DHT22;11787;52.018;8.570;2022-09-11T05:53:24;15.70;99.90
23237;DHT22;11787;52.018;8.570;2022-09-11T05:55:50;15.70;99.90
23237;DHT22;11787;52.018;8.570;2022-09-11T05:58:16;15.70;99.90
23237;DHT22;11787;52.018;8.570;2022-09-11T06:00:42;15.80;99.90
23237;DHT22;11787;52.018;8.570;2022-09-11T06:03:12;15.70;99.90
23237;DHT22;11787;52.018;8.570;2022-09-11T06:05:37;15.70;99.90
23237;DHT22;11787;52.018;8.570;2022-09-11T06:08:03;15.70;99.90
23237;DHT22;11787;52.018;8.570;2022-09-11T06:10:29;15.70;99.90
23237;DHT22;11787;52.018;8.570;2022-09-11T06:12:54;15.80;99.90
23237;DHT22;11787;52.018;8.570;2022-09-11T06:15:20;15.80;99.90
23237;DHT22;11787;52.018;8.570;2022-09-11T06:17:45;15.80;99.90
23237;DHT22;11787;52.018;8.570;2022-09-11T06:20:11;15.80;99.90
23237;DHT22;11787;52.018;8.570;2022-09-11T06:22:37;15.80;99.90
23237;DHT22;11787;52.018;8.570;2022-09-11T06:25:03;15.80;99.90
23237;DHT22;11787;52.018;8.570;2022-09-11T06:27:30;15.70;99.90
23237;DHT22;11787;52.018;8.570;2022-09-11T06:29:55;15.70;99.90
23237;DHT22;11787;52.018;8.570;2022-09-11T06:32:21;15.60;99.90
23237;DHT22;11787;52.018;8.570;2022-09-11T06:34:46;15.70;99.90
23237;DHT22;11787;52.018;8.570;2022-09-11T06:37:12;15.70;99.90
23237;DHT22;11787;52.018;8.570;2022-09-11T06:39:38;15.70;99.90
23237;DHT22;11787;52.018;8.570;2022-09-11T06:42:04;15.70;99.90
23237;DHT22;11787;52.018;8.570;2022-09-11T06:44:29;15.70;99.90
23237;DHT22;11787;52.018;8.570;2022-09-11T06:46:55;15.70;99.90
23237;DHT22;11787;52.018;8.570;2022-09-11T06:49:22;15.60;99.90
23237;DHT22;11787;52.018;8.570;2022-09-11T06:51:47;15.60;99.90
23237;DHT22;11787;52.018;8.570;2022-09-11T06:54:13;15.70;99.90
23237;DHT22;11787;52.018;8.570;2022-09-11T06:56:40;15.70;99.90
23237;DHT22;11787;52.018;8.570;2022-09-11T06:59:06;15.60;99.90
23237;DHT22;11787;52.018;8.570;2022-09-11T07:01:32;15.70;99.90
23237;DHT22;11787;52.018;8.570;2022-09-11T07:03:57;15.70;99.90
23237;DHT22;11787;52.018;8.570;2022-09-11T07:06:27;15.80;99.90
23237;DHT22;11787;52.018;8.570;2022-09-11T07:08:58;15.80;99.90
23237;DHT22;11787;52.018;8.570;2022-09-11T07:11:32;15.80;99.90
23237;DHT22;11787;52.018;8.570;2022-09-11T07:14:01;15.80;99.90
23237;DHT22;11787;52.018;8.570;2022-09-11T07:16:30;15.80;99.90
23237;DHT22;11787;52.018;8.570;2022-09-11T07:18:55;15.80;99.90
23237;DHT22;11787;52.018;8.570;2022-09-11T07:21:24;15.80;99.90
23237;DHT22;11787;52.018;8.570;2022-09-11T07:23:52;15.80;99.90
23237;DHT22;11787;52.018;8.570;2022-09-11T07:26:23;15.90;99.90
23237;DHT22;11787;52.018;8.570;2022-09-11T07:28:50;15.90;99.90
23237;DHT22;11787;52.018;8.570;2022-09-11T07:31:18;16.00;99.90
23237;DHT22;11787;52.018;8.570;2022-09-11T07:33:45;16.00;99.90
23237;DHT22;11787;52.018;8.570;2022-09-11T07:36:14;16.00;99.90
23237;DHT22;11787;52.018;8.570;2022-09-11T07:38:42;16.00;99.90
23237;DHT22;11787;52.018;8.570;2022-09-11T07:41:09;16.00;99.90
23237;DHT22;11787;52.018;8.570;2022-09-11T07:43:36;16.00;99.90
23237;DHT22;11787;52.018;8.570;2022-09-11T07:46:02;16.00;99.90
23237;DHT22;11787;52.018;8.570;2022-09-11T07:48:29;16.00;99.90
23237;DHT22;11787;52.018;8.570;2022-09-11T07:51:00;16.10;99.90
23237;DHT22;11787;52.018;8.570;2022-09-11T07:53:34;16.00;99.90
23237;DHT22;11787;52.018;8.570;2022-09-11T07:56:01;16.00;99.90
23237;DHT22;11787;52.018;8.570;2022-09-11T07:58:34;16.00;99.90
23237;DHT22;11787;52.018;8.570;2022-09-11T08:01:01;16.10;99.90
23237;DHT22;11787;52.018;8.570;2022-09-11T08:03:28;16.10;99.90
23237;DHT22;11787;52.018;8.570;2022-09-11T08:05:59;16.10;99.90
23237;DHT22;11787;52.018;8.570;2022-09-11T08:08:25;16.20;99.90
23237;DHT22;11787;52.018;8.570;2022-09-11T08:10:54;16.20;99.90
23237;DHT22;11787;52.018;8.570;2022-09-11T08:13:20;16.20;99.90
23237;DHT22;11787;52.018;8.570;2022-09-11T08:15:48;16.20;99.90
23237;DHT22;11787;52.018;8.570;2022-09-11T08:18:14;16.30;99.90
23237;DHT22;11787;52.018;8.570;2022-09-11T08:20:39;16.30;99.90
23237;DHT22;11787;52.018;8.570;2022-09-11T08:23:06;16.20;99.90
23237;DHT22;11787;52.018;8.570;2022-09-11T08:25:33;16.20;99.90
23237;DHT22;11787;52.018;8.570;2022-09-11T08:27:59;16.20;99.90
23237;DHT22;11787;52.018;8.570;2022-09-11T08:30:25;16.20;99.90
23237;DHT22;11787;52.018;8.570;2022-09-11T08:32:51;16.30;99.90
23237;DHT22;11787;52.018;8.570;2022-09-11T08:35:16;16.30;99.90
23237;DHT22;11787;52.018;8.570;2022-09-11T08:37:42;16.40;99.90
23237;DHT22;11787;52.018;8.570;2022-09-11T08:40:08;16.50;99.90
23237;DHT22;11787;52.018;8.570;2022-09-11T08:42:38;16.60;99.90
23237;DHT22;11787;52.018;8.570;2022-09-11T08:45:06;16.60;99.90
23237;DHT22;11787;52.018;8.570;2022-09-11T08:47:34;16.80;99.90
23237;DHT22;11787;52.018;8.570;2022-09-11T08:50:10;16.80;99.90
23237;DHT22;11787;52.018;8.570;2022-09-11T08:52:36;16.90;99.90
23237;DHT22;11787;52.018;8.570;2022-09-11T08:55:02;16.90;99.90
23237;DHT22;11787;52.018;8.570;2022-09-11T09:00:22;17.00;99.90
23237;DHT22;11787;52.018;8.570;2022-09-11T09:05:54;17.20;99.90
23237;DHT22;11787;52.018;8.570;2022-09-11T09:08:33;17.30;99.90
23237;DHT22;11787;52.018;8.570;2022-09-11T09:11:18;17.40;99.90
23237;DHT22;11787;52.018;8.570;2022-09-11T09:19:14;17.70;99.90
23237;DHT22;11787;52.018;8.570;2022-09-11T09:21:48;17.90;99.90
23237;DHT22;11787;52.018;8.570;2022-09-11T09:24:19;18.10;99.90
23237;DHT22;11787;52.018;8.570;2022-09-11T09:26:53;18.30;99.90
23237;DHT22;11787;52.018;8.570;2022-09-11T09:29:22;18.40;99.90
23237;DHT22;11787;52.018;8.570;2022-09-11T09:31:57;18.40;99.90
23237;DHT22;11787;52.018;8.570;2022-09-11T09:34:25;18.30;99.90
23237;DHT22;11787;52.018;8.570;2022-09-11T09:37:21;18.30;99.90
23237;DHT22;11787;52.018;8.570;2022-09-11T09:39:46;18.20;99.90
23237;DHT22;11787;52.018;8.570;2022-09-11T09:47:15;18.20;99.90
23237;DHT22;11787;52.018;8.570;2022-09-11T09:49:42;18.20;99.90
23237;DHT22;11787;52.018;8.570;2022-09-11T09:54:40;18.40;99.90
23237;DHT22;11787;52.018;8.570;2022-09-11T09:57:08;18.50;99.90
23237;DHT22;11787;52.018;8.570;2022-09-11T09:59:42;18.50;99.90
23237;DHT22;11787;52.018;8.570;2022-09-11T10:02:10;18.50;99.90
23237;DHT22;11787;52.018;8.570;2022-09-11T10:04:36;18.40;99.90
23237;DHT22;11787;52.018;8.570;2022-09-11T10:09:30;18.50;99.90
23237;DHT22;11787;52.018;8.570;2022-09-11T10:11:57;18.40;99.90
23237;DHT22;11787;52.018;8.570;2022-09-11T10:14:26;18.40;99.90
23237;DHT22;11787;52.018;8.570;2022-09-11T10:16:51;18.50;99.90
23237;DHT22;11787;52.018;8.570;2022-09-11T10:19:35;18.40;99.90
23237;DHT22;11787;52.018;8.570;2022-09-11T10:24:50;18.40;99.90
23237;DHT22;11787;52.018;8.570;2022-09-11T10:27:16;18.30;99.90
23237;DHT22;11787;52.018;8.570;2022-09-11T10:29:47;18.30;99.90
23237;DHT22;11787;52.018;8.570;2022-09-11T10:32:14;18.40;99.90
23237;DHT22;11787;52.018;8.570;2022-09-11T10:34:40;18.30;99.90
23237;DHT22;11787;52.018;8.570;2022-09-11T10:39:38;18.40;99.90
23237;DHT22;11787;52.018;8.570;2022-09-11T10:42:15;18.50;99.90
23237;DHT22;11787;52.018;8.570;2022-09-11T10:44:42;18.60;99.90
23237;DHT22;11787;52.018;8.570;2022-09-11T10:47:12;18.60;99.90
23237;DHT22;11787;52.018;8.570;2022-09-11T10:49:39;18.70;99.90
23237;DHT22;11787;52.018;8.570;2022-09-11T10:54:40;18.80;99.90
23237;DHT22;11787;52.018;8.570;2022-09-11T11:02:16;19.50;99.90
23237;DHT22;11787;52.018;8.570;2022-09-11T11:04:43;19.60;99.90
23237;DHT22;11787;52.018;8.570;2022-09-11T11:32:05;19.30;99.90
23237;DHT22;11787;52.018;8.570;2022-09-11T11:34:29;19.30;99.90
23237;DHT22;11787;52.018;8.570;2022-09-11T11:44:52;19.40;99.90
23237;DHT22;11787;52.018;8.570;2022-09-11T11:47:20;19.50;99.90
23237;DHT22;11787;52.018;8.570;2022-09-11T11:50:08;19.50;99.90
23237;DHT22;11787;52.018;8.570;2022-09-11T11:55:25;19.70;99.90
23237;DHT22;11787;52.018;8.570;2022-09-11T12:00:41;19.90;99.90
23237;DHT22;11787;52.018;8.570;2022-09-11T12:03:12;20.10;99.90
23237;DHT22;11787;52.018;8.570;2022-09-11T12:05:39;20.20;99.90
23237;DHT22;11787;52.018;8.570;2022-09-11T12:08:10;20.40;99.90
23237;DHT22;11787;52.018;8.570;2022-09-11T12:10:37;20.50;99.90
23237;DHT22;11787;52.018;8.570;2022-09-11T12:13:05;20.40;99.90
23237;DHT22;11787;52.018;8.570;2022-09-11T12:15:31;20.40;99.90
23237;DHT22;11787;52.018;8.570;2022-09-11T12:18:02;20.50;99.90
23237;DHT22;11787;52.018;8.570;2022-09-11T12:20:29;20.50;99.90
23237;DHT22;11787;52.018;8.570;2022-09-11T12:22:56;20.30;99.90
23237;DHT22;11787;52.018;8.570;2022-09-11T12:30:57;19.90;99.90
23237;DHT22;11787;52.018;8.570;2022-09-11T12:34:08;19.80;99.90
23237;DHT22;11787;52.018;8.570;2022-09-11T12:36:20;19.80;99.90
23237;DHT22;11787;52.018;8.570;2022-09-11T12:38:52;19.80;99.90
23237;DHT22;11787;52.018;8.570;2022-09-11T12:41:40;19.90;99.90
23237;DHT22;11787;52.018;8.570;2022-09-11T12:44:16;20.10;99.90
23237;DHT22;11787;52.018;8.570;2022-09-11T12:49:22;20.50;99.90
23237;DHT22;11787;52.018;8.570;2022-09-11T12:51:50;20.80;99.90
23237;DHT22;11787;52.018;8.570;2022-09-11T12:56:48;21.40;99.90
23237;DHT22;11787;52.018;8.570;2022-09-11T12:59:31;21.30;99.90
23237;DHT22;11787;52.018;8.570;2022-09-11T13:01:57;21.40;99.90
23237;DHT22;11787;52.018;8.570;2022-09-11T13:04:24;21.30;99.90
23237;DHT22;11787;52.018;8.570;2022-09-11T13:06:51;21.50;99.90
23237;DHT22;11787;52.018;8.570;2022-09-11T13:14:50;21.70;99.90
23237;DHT22;11787;52.018;8.570;2022-09-11T13:17:31;21.70;99.90
23237;DHT22;11787;52.018;8.570;2022-09-11T13:22:32;22.00;99.90
23237;DHT22;11787;52.018;8.570;2022-09-11T13:27:45;21.50;99.90
23237;DHT22;11787;52.018;8.570;2022-09-11T13:30:18;21.60;99.90
23237;DHT22;11787;52.018;8.570;2022-09-11T13:32:46;21.70;99.90
23237;DHT22;11787;52.018;8.570;2022-09-11T13:35:33;21.70;99.90
23237;DHT22;11787;52.018;8.570;2022-09-11T13:38:16;21.70;99.90
23237;DHT22;11787;52.018;8.570;2022-09-11T13:40:46;21.90;99.90
23237;DHT22;11787;52.018;8.570;2022-09-11T13:43:16;21.70;99.90
23237;DHT22;11787;52.018;8.570;2022-09-11T13:45:42;21.90;99.90
23237;DHT22;11787;52.018;8.570;2022-09-11T13:48:18;22.10;99.90
23237;DHT22;11787;52.018;8.570;2022-09-11T13:50:44;22.10;99.90
23237;DHT22;11787;52.018;8.570;2022-09-11T13:53:10;22.00;99.90
23237;DHT22;11787;52.018;8.570;2022-09-11T13:55:35;21.70;99.90
23237;DHT22;11787;52.018;8.570;2022-09-11T13:58:02;21.60;99.90
23237;DHT22;11787;52.018;8.570;2022-09-11T14:00:46;21.60;99.90
23237;DHT22;11787;52.018;8.570;2022-09-11T14:03:30;21.70;99.90
23237;DHT22;11787;52.018;8.570;2022-09-11T14:06:02;21.50;99.90
23237;DHT22;11787;52.018;8.570;2022-09-11T14:08:40;21.40;99.90
23237;DHT22;11787;52.018;8.570;2022-09-11T14:11:08;21.40;99.90
23237;DHT22;11787;52.018;8.570;2022-09-11T14:13:50;21.60;99.90
23237;DHT22;11787;52.018;8.570;2022-09-11T14:16:30;21.70;99.90
23237;DHT22;11787;52.018;8.570;2022-09-11T14:19:11;21.70;99.90
23237;DHT22;11787;52.018;8.570;2022-09-11T14:21:38;21.50;99.90
23237;DHT22;11787;52.018;8.570;2022-09-11T14:24:49;21.50;99.90
23237;DHT22;11787;52.018;8.570;2022-09-11T14:26:50;21.30;99.90
23237;DHT22;11787;52.018;8.570;2022-09-11T14:29:30;21.30;99.90
23237;DHT22;11787;52.018;8.570;2022-09-11T14:32:29;21.20;99.90
23237;DHT22;11787;52.018;8.570;2022-09-11T14:34:56;21.20;99.90
23237;DHT22;11787;52.018;8.570;2022-09-11T14:37:23;21.20;99.90
23237;DHT22;11787;52.018;8.570;2022-09-11T14:39:55;21.40;99.90
23237;DHT22;11787;52.018;8.570;2022-09-11T14:42:26;21.50;99.90
23237;DHT22;11787;52.018;8.570;2022-09-11T14:44:52;21.60;99.90
23237;DHT22;11787;52.018;8.570;2022-09-11T14:47:22;21.60;99.90
23237;DHT22;11787;52.018;8.570;2022-09-11T14:49:50;21.50;99.90
23237;DHT22;11787;52.018;8.570;2022-09-11T14:52:20;21.60;99.90
23237;DHT22;11787;52.018;8.570;2022-09-11T14:54:47;21.80;99.90
23237;DHT22;11787;52.018;8.570;2022-09-11T14:57:18;21.80;99.90
23237;DHT22;11787;52.018;8.570;2022-09-11T14:59:44;21.80;99.90
23237;DHT22;11787;52.018;8.570;2022-09-11T15:02:11;21.70;99.90
23237;DHT22;11787;52.018;8.570;2022-09-11T15:04:37;21.60;99.90
23237;DHT22;11787;52.018;8.570;2022-09-11T15:07:03;21.60;99.90
23237;DHT22;11787;52.018;8.570;2022-09-11T15:09:28;21.60;99.90
23237;DHT22;11787;52.018;8.570;2022-09-11T15:11:54;21.60;99.90
23237;DHT22;11787;52.018;8.570;2022-09-11T15:14:20;21.60;99.90
23237;DHT22;11787;52.018;8.570;2022-09-11T15:16:46;21.70;99.90
23237;DHT22;11787;52.018;8.570;2022-09-11T15:19:12;21.70;99.90
23237;DHT22;11787;52.018;8.570;2022-09-11T15:21:39;21.60;99.90
23237;DHT22;11787;52.018;8.570;2022-09-11T15:24:05;21.60;99.90
23237;DHT22;11787;52.018;8.570;2022-09-11T15:26:31;21.60;99.90
23237;DHT22;11787;52.018;8.570;2022-09-11T15:28:57;21.60;99.90
23237;DHT22;11787;52.018;8.570;2022-09-11T15:31:23;21.50;99.90
23237;DHT22;11787;52.018;8.570;2022-09-11T15:33:49;21.50;99.90
23237;DHT22;11787;52.018;8.570;2022-09-11T15:36:15;21.40;99.90
23237;DHT22;11787;52.018;8.570;2022-09-11T15:38:41;21.40;99.90
23237;DHT22;11787;52.018;8.570;2022-09-11T15:41:07;21.50;99.90
23237;DHT22;11787;52.018;8.570;2022-09-11T15:43:36;21.60;99.90
23237;DHT22;11787;52.018;8.570;2022-09-11T15:46:11;21.50;99.90
23237;DHT22;11787;52.018;8.570;2022-09-11T15:48:37;21.60;99.90
23237;DHT22;11787;52.018;8.570;2022-09-11T15:51:03;21.70;99.90
23237;DHT22;11787;52.018;8.570;2022-09-11T15:53:29;21.50;99.90
23237;DHT22;11787;52.018;8.570;2022-09-11T15:58:29;21.50;99.90
23237;DHT22;11787;52.018;8.570;2022-09-11T16:00:56;21.60;99.90
23237;DHT22;11787;52.018;8.570;2022-09-11T16:03:21;21.50;99.90
23237;DHT22;11787;52.018;8.570;2022-09-11T16:05:47;21.50;99.90
23237;DHT22;11787;52.018;8.570;2022-09-11T16:08:12;21.50;99.90
23237;DHT22;11787;52.018;8.570;2022-09-11T16:10:40;21.30;99.90
23237;DHT22;11787;52.018;8.570;2022-09-11T16:13:06;21.40;99.90
23237;DHT22;11787;52.018;8.570;2022-09-11T16:15:32;21.30;99.90
23237;DHT22;11787;52.018;8.570;2022-09-11T16:17:59;21.40;99.90
23237;DHT22;11787;52.018;8.570;2022-09-11T16:20:24;21.40;99.90
23237;DHT22;11787;52.018;8.570;2022-09-11T16:22:50;21.40;99.90
23237;DHT22;11787;52.018;8.570;2022-09-11T16:25:16;21.40;99.90
23237;DHT22;11787;52.018;8.570;2022-09-11T16:27:43;21.30;99.90
23237;DHT22;11787;52.018;8.570;2022-09-11T16:30:09;21.30;99.90
23237;DHT22;11787;52.018;8.570;2022-09-11T16:32:35;21.30;99.90
23237;DHT22;11787;52.018;8.570;2022-09-11T16:35:04;21.30;99.90
23237;DHT22;11787;52.018;8.570;2022-09-11T16:37:30;21.30;99.90
23237;DHT22;11787;52.018;8.570;2022-09-11T16:39:58;21.30;99.90
23237;DHT22;11787;52.018;8.570;2022-09-11T16:42:30;21.20;99.90
23237;DHT22;11787;52.018;8.570;2022-09-11T16:44:55;21.20;99.90
23237;DHT22;11787;52.018;8.570;2022-09-11T16:47:21;21.10;99.90
23237;DHT22;11787;52.018;8.570;2022-09-11T16:49:47;20.90;99.90
23237;DHT22;11787;52.018;8.570;2022-09-11T16:52:13;20.80;99.90
23237;DHT22;11787;52.018;8.570;2022-09-11T16:54:39;20.80;99.90
23237;DHT22;11787;52.018;8.570;2022-09-11T16:57:07;20.60;99.90
23237;DHT22;11787;52.018;8.570;2022-09-11T16:59:33;20.50;99.90
23237;DHT22;11787;52.018;8.570;2022-09-11T17:01:59;20.50;99.90
23237;DHT22;11787;52.018;8.570;2022-09-11T17:04:25;20.40;99.90
23237;DHT22;11787;52.018;8.570;2022-09-11T17:06:51;20.40;99.90
23237;DHT22;11787;52.018;8.570;2022-09-11T17:09:16;20.40;99.90
23237;DHT22;11787;52.018;8.570;2022-09-11T17:11:42;20.40;99.90
23237;DHT22;11787;52.018;8.570;2022-09-11T17:14:09;20.40;99.90
23237;DHT22;11787;52.018;8.570;2022-09-11T17:16:36;20.40;99.90
23237;DHT22;11787;52.018;8.570;2022-09-11T17:19:03;20.40;99.90
23237;DHT22;11787;52.018;8.570;2022-09-11T17:21:29;20.40;99.90
23237;DHT22;11787;52.018;8.570;2022-09-11T17:24:00;20.40;99.90
23237;DHT22;11787;52.018;8.570;2022-09-11T17:26:26;20.30;99.90
23237;DHT22;11787;52.018;8.570;2022-09-11T17:28:52;20.20;99.90
23237;DHT22;11787;52.018;8.570;2022-09-11T17:31:19;20.10;99.90
23237;DHT22;11787;52.018;8.570;2022-09-11T17:33:47;20.00;99.90
23237;DHT22;11787;52.018;8.570;2022-09-11T17:36:14;20.00;99.90
23237;DHT22;11787;52.018;8.570;2022-09-11T17:38:41;20.00;99.90
23237;DHT22;11787;52.018;8.570;2022-09-11T17:41:08;19.90;99.90
23237;DHT22;11787;52.018;8.570;2022-09-11T17:43:34;19.90;99.90
23237;DHT22;11787;52.018;8.570;2022-09-11T17:46:02;19.80;99.90
23237;DHT22;11787;52.018;8.570;2022-09-11T17:48:28;19.80;99.90
23237;DHT22;11787;52.018;8.570;2022-09-11T17:51:02;19.70;99.90
23237;DHT22;11787;52.018;8.570;2022-09-11T17:53:33;19.60;99.90
23237;DHT22;11787;52.018;8.570;2022-09-11T17:56:03;19.50;99.90
23237;DHT22;11787;52.018;8.570;2022-09-11T17:58:29;19.40;99.90
23237;DHT22;11787;52.018;8.570;2022-09-11T18:00:55;19.40;99.90